createdAt,value
2017-09-15T00:00:32.115Z,80.00
2017-09-15T00:02:59.690Z,79.90
2017-09-15T00:05:28.222Z,75.20
2017-09-15T00:07:57.028Z,75.20
2017-09-15T00:10:25.502Z,77.90
2017-09-15T00:12:53.155Z,77.90
2017-09-15T00:15:20.856Z,78.70
2017-09-15T00:17:48.500Z,79.30
2017-09-15T00:20:16.094Z,79.50
2017-09-15T00:22:43.724Z,80.20
2017-09-15T00:25:11.313Z,80.70
2017-09-15T00:27:38.918Z,81.40
2017-09-15T00:30:07.281Z,82.50
2017-09-15T00:32:34.901Z,82.50
2017-09-15T00:35:02.552Z,83.30
2017-09-15T00:37:30.188Z,83.80
2017-09-15T00:39:57.956Z,83.50
2017-09-15T00:42:26.609Z,84.10
2017-09-15T00:44:54.174Z,84.00
2017-09-15T00:47:21.744Z,84.00
2017-09-15T00:49:50.145Z,82.60
2017-09-15T00:52:17.739Z,82.60
2017-09-15T00:54:45.411Z,83.10
2017-09-15T00:57:12.967Z,83.40
2017-09-15T00:59:40.526Z,83.90
2017-09-15T01:02:08.135Z,83.90
2017-09-15T01:04:36.031Z,84.60
2017-09-15T01:07:03.592Z,84.90
2017-09-15T01:09:31.236Z,84.80
2017-09-15T01:11:58.890Z,85.20
2017-09-15T01:14:26.596Z,85.10
2017-09-15T01:16:55.581Z,85.90
2017-09-15T01:19:24.205Z,86.60
2017-09-15T01:21:52.126Z,86.60
2017-09-15T01:24:19.837Z,86.40
2017-09-15T01:26:47.428Z,86.30
2017-09-15T01:29:15.727Z,86.10
2017-09-15T01:31:43.283Z,86.10
2017-09-15T01:34:10.807Z,86.30
2017-09-15T01:36:38.363Z,86.40
2017-09-15T01:39:05.889Z,86.90
2017-09-15T01:41:33.479Z,87.10
2017-09-15T01:44:01.102Z,87.40
2017-09-15T01:46:28.743Z,86.80
2017-09-15T01:48:56.422Z,86.70
2017-09-15T01:51:24.102Z,87.10
2017-09-15T01:53:51.778Z,87.30
2017-09-15T01:56:19.375Z,87.30
2017-09-15T01:58:47.687Z,87.10
2017-09-15T02:01:15.247Z,87.10
2017-09-15T02:03:42.780Z,86.90
2017-09-15T02:06:10.339Z,87.50
2017-09-15T02:08:37.872Z,88.00
2017-09-15T02:11:05.431Z,87.50
2017-09-15T02:13:33.000Z,87.40
2017-09-15T02:16:00.713Z,87.50
2017-09-15T02:18:28.318Z,87.00
2017-09-15T02:20:56.819Z,86.70
2017-09-15T02:23:24.590Z,86.60
2017-09-15T02:25:52.377Z,86.90
2017-09-15T02:28:20.963Z,87.90
2017-09-15T02:30:48.655Z,87.80
2017-09-15T02:33:16.197Z,87.50
2017-09-15T02:35:43.771Z,87.20
2017-09-15T02:38:11.325Z,88.00
2017-09-15T02:40:38.900Z,88.30
2017-09-15T02:43:06.430Z,88.90
2017-09-15T02:45:34.791Z,88.40
2017-09-15T02:48:03.180Z,88.10
2017-09-15T02:50:30.828Z,87.90
2017-09-15T02:52:58.429Z,87.90
2017-09-15T02:55:26.927Z,87.50
2017-09-15T02:57:54.691Z,87.40
2017-09-15T03:00:22.852Z,87.30
2017-09-15T03:02:50.701Z,87.60
2017-09-15T03:05:18.357Z,87.70
2017-09-15T03:07:45.882Z,87.50
2017-09-15T03:10:14.207Z,88.00
2017-09-15T03:12:41.757Z,87.90
2017-09-15T03:15:09.339Z,88.00
2017-09-15T03:17:36.867Z,87.80
2017-09-15T03:20:05.213Z,87.50
2017-09-15T03:22:32.937Z,87.50
2017-09-15T03:25:00.566Z,87.80
2017-09-15T03:27:28.301Z,87.60
2017-09-15T03:29:56.168Z,87.60
2017-09-15T03:32:24.106Z,87.50
2017-09-15T03:34:52.351Z,87.80
2017-09-15T03:37:20.830Z,87.80
2017-09-15T03:39:48.483Z,88.80
2017-09-15T03:42:16.040Z,87.70
2017-09-15T03:44:43.642Z,88.10
2017-09-15T03:47:11.960Z,87.80
2017-09-15T03:49:39.536Z,87.80
2017-09-15T03:52:07.055Z,88.30
2017-09-15T03:54:34.673Z,88.60
2017-09-15T03:57:02.222Z,88.00
2017-09-15T03:59:29.856Z,87.70
2017-09-15T04:01:57.552Z,87.70
2017-09-15T04:04:25.240Z,87.40
2017-09-15T04:06:52.912Z,88.00
2017-09-15T04:09:20.652Z,88.10
2017-09-15T04:11:48.326Z,88.00
2017-09-15T04:14:15.912Z,88.00
2017-09-15T04:16:43.439Z,87.60
2017-09-15T04:19:11.775Z,88.10
2017-09-15T04:21:39.325Z,88.10
2017-09-15T04:24:06.882Z,88.40
2017-09-15T04:26:34.436Z,88.20
2017-09-15T04:29:02.011Z,87.60
2017-09-15T04:31:30.307Z,87.90
2017-09-15T04:33:57.852Z,87.70
2017-09-15T04:36:25.446Z,88.20
2017-09-15T04:38:53.763Z,88.40
2017-09-15T04:41:21.537Z,88.40
2017-09-15T04:43:52.104Z,87.90
2017-09-15T04:46:19.642Z,88.00
2017-09-15T04:48:47.984Z,88.00
2017-09-15T04:51:15.532Z,87.90
2017-09-15T04:53:43.063Z,88.10
2017-09-15T04:56:10.638Z,88.20
2017-09-15T04:58:38.932Z,87.70
2017-09-15T05:01:06.500Z,87.70
2017-09-15T05:03:34.097Z,88.20
2017-09-15T05:06:02.424Z,88.70
2017-09-15T05:08:29.972Z,88.70
2017-09-15T05:10:57.597Z,89.20
2017-09-15T05:13:25.136Z,89.80
2017-09-15T05:15:52.736Z,90.10
2017-09-15T05:18:21.040Z,89.70
2017-09-15T05:20:48.563Z,89.60
2017-09-15T05:23:16.128Z,87.90
2017-09-15T05:25:43.691Z,88.70
2017-09-15T05:28:11.231Z,89.00
2017-09-15T05:30:38.823Z,89.20
2017-09-15T05:33:06.391Z,89.20
2017-09-15T05:35:33.919Z,89.70
2017-09-15T05:38:02.247Z,89.70
2017-09-15T05:40:29.875Z,89.70
2017-09-15T05:42:57.432Z,89.20
2017-09-15T05:45:25.010Z,88.70
2017-09-15T05:47:53.355Z,88.30
2017-09-15T05:50:21.741Z,88.60
2017-09-15T05:52:50.079Z,88.90
2017-09-15T05:55:17.603Z,88.80
2017-09-15T05:57:45.170Z,88.50
2017-09-15T06:00:12.705Z,88.50
2017-09-15T06:02:40.264Z,88.60
2017-09-15T06:05:07.791Z,88.50
2017-09-15T06:07:35.344Z,89.30
2017-09-15T06:10:02.863Z,88.70
2017-09-15T06:12:30.497Z,88.50
2017-09-15T06:14:58.032Z,88.50
2017-09-15T06:17:25.646Z,88.10
2017-09-15T06:19:54.011Z,88.20
2017-09-15T06:22:21.734Z,88.20
2017-09-15T06:24:50.112Z,87.70
2017-09-15T06:27:17.680Z,87.60
2017-09-15T06:29:45.967Z,87.70
2017-09-15T06:32:13.531Z,87.70
2017-09-15T06:34:41.076Z,87.70
2017-09-15T06:37:08.678Z,86.20
2017-09-15T06:39:36.997Z,85.10
2017-09-15T06:42:04.563Z,85.00
2017-09-15T06:44:32.228Z,85.40
2017-09-15T06:47:00.601Z,83.70
2017-09-15T06:49:28.976Z,83.00
2017-09-15T06:51:56.573Z,82.80
2017-09-15T06:54:24.303Z,82.00
2017-09-15T06:56:51.955Z,79.90
2017-09-15T06:59:19.532Z,80.00
2017-09-15T07:01:47.979Z,79.20
2017-09-15T07:04:16.285Z,79.30
2017-09-15T07:06:44.626Z,79.00
2017-09-15T07:09:12.212Z,79.00
2017-09-15T07:11:39.735Z,79.70
2017-09-15T07:14:08.354Z,77.60
2017-09-15T07:16:35.889Z,77.50
2017-09-15T07:19:03.415Z,75.80
2017-09-15T07:21:30.967Z,75.90
2017-09-15T07:23:58.503Z,74.40
2017-09-15T07:26:26.106Z,75.60
2017-09-15T07:28:53.650Z,77.30
2017-09-15T07:31:21.228Z,77.90
2017-09-15T07:33:48.769Z,78.30
2017-09-15T07:36:17.108Z,79.30
2017-09-15T07:38:44.655Z,79.30
2017-09-15T07:41:12.216Z,67.50
2017-09-15T07:43:40.511Z,64.10
2017-09-15T07:46:08.283Z,64.00
2017-09-15T07:48:35.811Z,62.40
2017-09-15T07:51:03.335Z,61.20
2017-09-15T07:53:30.894Z,61.70
2017-09-15T07:55:58.453Z,60.00
2017-09-15T07:58:26.036Z,60.20
2017-09-15T08:00:53.607Z,59.60
2017-09-15T08:03:21.171Z,59.20
2017-09-15T08:05:48.716Z,59.10
2017-09-15T08:08:17.038Z,59.00
2017-09-15T08:10:44.563Z,59.00
2017-09-15T08:13:12.447Z,58.70
2017-09-15T08:15:40.008Z,58.20
2017-09-15T08:18:07.746Z,57.70
2017-09-15T08:20:36.105Z,56.80
2017-09-15T08:23:04.406Z,57.30
2017-09-15T08:25:31.967Z,57.20
2017-09-15T08:27:59.522Z,57.10
2017-09-15T08:30:27.117Z,57.80
2017-09-15T08:32:55.433Z,57.00
2017-09-15T08:35:23.003Z,56.90
2017-09-15T08:37:50.535Z,57.20
2017-09-15T08:40:18.109Z,57.10
2017-09-15T08:42:46.399Z,56.70
2017-09-15T08:45:13.982Z,56.70
2017-09-15T08:47:41.625Z,57.60
2017-09-15T08:50:09.950Z,58.10
2017-09-15T08:52:37.474Z,58.00
2017-09-15T08:55:05.827Z,56.40
2017-09-15T08:57:33.363Z,56.40
2017-09-15T09:00:00.897Z,55.30
2017-09-15T09:02:28.689Z,56.20
2017-09-15T09:04:56.275Z,56.70
2017-09-15T09:07:23.897Z,56.40
2017-09-15T09:09:51.435Z,55.70
2017-09-15T09:12:19.000Z,54.90
2017-09-15T09:14:46.528Z,55.60
2017-09-15T09:17:14.087Z,54.80
2017-09-15T09:19:41.610Z,52.30
2017-09-15T09:22:09.172Z,52.70
2017-09-15T09:24:36.699Z,53.50
2017-09-15T09:27:04.287Z,51.80
2017-09-15T09:29:31.855Z,49.40
2017-09-15T09:31:59.457Z,49.30
2017-09-15T09:34:27.007Z,50.80
2017-09-15T09:36:54.572Z,50.10
2017-09-15T09:39:22.099Z,50.00
2017-09-15T09:41:49.701Z,51.00
2017-09-15T09:44:17.995Z,50.00
2017-09-15T09:46:45.589Z,50.00
2017-09-15T09:49:13.163Z,50.70
2017-09-15T09:51:41.492Z,48.50
2017-09-15T09:54:09.020Z,48.50
2017-09-15T09:56:36.629Z,49.40
2017-09-15T09:59:05.027Z,48.30
2017-09-15T10:01:32.600Z,48.20
2017-09-15T10:04:00.194Z,48.50
2017-09-15T10:06:27.855Z,49.00
2017-09-15T10:08:55.403Z,48.20
2017-09-15T10:11:23.012Z,49.30
2017-09-15T10:13:50.584Z,46.50
2017-09-15T10:16:18.127Z,47.10
2017-09-15T10:18:45.760Z,47.40
2017-09-15T10:21:13.443Z,48.10
2017-09-15T10:23:41.011Z,48.40
2017-09-15T10:26:08.557Z,47.90
2017-09-15T10:28:36.139Z,50.00
2017-09-15T10:31:03.765Z,48.50
2017-09-15T10:33:32.143Z,48.40
2017-09-15T10:35:59.849Z,48.40
2017-09-15T10:38:27.552Z,48.50
2017-09-15T10:40:55.259Z,49.10
2017-09-15T10:43:22.933Z,48.50
2017-09-15T10:45:50.475Z,48.80
2017-09-15T10:48:18.799Z,48.70
2017-09-15T10:50:46.324Z,48.70
2017-09-15T10:53:13.926Z,48.00
2017-09-15T10:55:42.233Z,46.80
2017-09-15T10:58:15.606Z,46.80
2017-09-15T11:00:43.133Z,46.80
2017-09-15T11:03:10.706Z,47.40
2017-09-15T11:05:38.244Z,47.60
2017-09-15T11:08:05.875Z,46.90
2017-09-15T11:10:33.430Z,48.20
2017-09-15T11:13:01.096Z,46.70
2017-09-15T11:15:28.740Z,45.80
2017-09-15T11:17:56.343Z,46.30
2017-09-15T11:20:23.904Z,43.40
2017-09-15T11:22:51.482Z,42.50
2017-09-15T11:25:19.031Z,43.80
2017-09-15T11:27:46.592Z,44.10
2017-09-15T11:30:14.163Z,42.10
2017-09-15T11:32:42.451Z,41.60
2017-09-15T11:35:10.015Z,41.50
2017-09-15T11:37:37.579Z,42.30
2017-09-15T11:40:05.156Z,41.10
2017-09-15T11:42:33.700Z,41.30
2017-09-15T11:45:02.142Z,41.40
2017-09-15T11:47:29.696Z,40.90
2017-09-15T11:49:57.335Z,42.50
2017-09-15T11:52:24.871Z,42.30
2017-09-15T11:54:52.452Z,42.10
2017-09-15T11:57:19.979Z,41.20
2017-09-15T11:59:48.323Z,44.40
2017-09-15T12:02:15.882Z,44.40
2017-09-15T12:04:43.455Z,41.50
2017-09-15T12:07:10.987Z,41.90
2017-09-15T12:09:38.543Z,40.90
2017-09-15T12:12:06.079Z,40.50
2017-09-15T12:14:33.667Z,39.20
2017-09-15T12:17:01.212Z,39.20
2017-09-15T12:19:28.787Z,39.30
2017-09-15T12:21:56.315Z,39.60
2017-09-15T12:24:23.883Z,39.80
2017-09-15T12:26:51.422Z,41.40
2017-09-15T12:29:18.995Z,39.30
2017-09-15T12:31:46.534Z,39.80
2017-09-15T12:34:14.100Z,39.10
2017-09-15T12:36:41.633Z,40.10
2017-09-15T12:39:09.980Z,38.40
2017-09-15T12:41:37.512Z,38.40
2017-09-15T12:44:05.050Z,39.40
2017-09-15T12:46:32.652Z,40.10
2017-09-15T12:49:00.215Z,41.80
2017-09-15T12:51:27.804Z,41.20
2017-09-15T12:53:55.370Z,40.20
2017-09-15T12:56:22.950Z,37.60
2017-09-15T12:58:50.546Z,39.40
2017-09-15T13:01:18.880Z,40.60
2017-09-15T13:03:46.437Z,41.30
2017-09-15T13:06:14.003Z,39.00
2017-09-15T13:08:42.304Z,37.40
2017-09-15T13:11:10.661Z,36.50
2017-09-15T13:13:38.988Z,37.70
2017-09-15T13:16:06.576Z,37.60
2017-09-15T13:18:34.921Z,38.60
2017-09-15T13:21:02.526Z,38.60
2017-09-15T13:23:30.101Z,35.70
2017-09-15T13:25:57.644Z,37.80
2017-09-15T13:28:25.226Z,43.70
2017-09-15T13:30:53.548Z,39.80
2017-09-15T13:33:21.142Z,39.80
2017-09-15T13:35:48.687Z,44.50
2017-09-15T13:38:16.263Z,42.60
2017-09-15T13:40:43.795Z,45.30
2017-09-15T13:43:11.469Z,49.40
2017-09-15T13:45:39.008Z,43.90
2017-09-15T13:48:06.579Z,46.80
2017-09-15T13:50:34.117Z,49.90
2017-09-15T13:53:02.154Z,44.20
2017-09-15T13:55:29.704Z,45.80
2017-09-15T13:57:57.272Z,42.70
2017-09-15T14:00:24.806Z,43.60
2017-09-15T14:02:52.381Z,47.10
2017-09-15T14:05:19.938Z,51.90
2017-09-15T14:07:47.476Z,49.80
2017-09-15T14:10:15.803Z,50.30
2017-09-15T14:12:43.334Z,50.30
2017-09-15T14:15:10.924Z,45.00
2017-09-15T14:17:39.221Z,49.10
2017-09-15T14:20:06.801Z,49.10
2017-09-15T14:22:34.349Z,44.70
2017-09-15T14:25:02.812Z,39.80
2017-09-15T14:27:30.415Z,39.80
2017-09-15T14:29:58.003Z,46.20
2017-09-15T14:32:25.602Z,47.60
2017-09-15T14:34:54.163Z,48.20
2017-09-15T14:37:21.740Z,49.60
2017-09-15T14:39:49.407Z,51.20
2017-09-15T14:42:16.978Z,50.20
2017-09-15T14:44:44.535Z,46.50
2017-09-15T14:47:12.836Z,43.70
2017-09-15T14:49:40.397Z,43.70
2017-09-15T14:52:07.968Z,42.30
2017-09-15T14:54:35.569Z,41.50
2017-09-15T14:57:03.125Z,41.00
2017-09-15T14:59:30.719Z,40.50
2017-09-15T15:01:59.024Z,44.00
2017-09-15T15:04:26.690Z,43.90
2017-09-15T15:06:54.228Z,42.50
2017-09-15T15:09:21.791Z,46.30
2017-09-15T15:11:49.330Z,48.80
2017-09-15T15:14:16.865Z,49.40
2017-09-15T15:16:44.429Z,49.10
2017-09-15T15:19:11.975Z,51.10
2017-09-15T15:21:39.544Z,51.40
2017-09-15T15:24:07.974Z,54.90
2017-09-15T15:26:35.543Z,54.30
2017-09-15T15:29:03.104Z,56.60
2017-09-15T15:31:31.444Z,56.10
2017-09-15T15:33:58.989Z,56.00
2017-09-15T15:36:26.572Z,56.50
2017-09-15T15:38:54.873Z,58.10
2017-09-15T15:41:22.429Z,58.10
2017-09-15T15:43:49.978Z,57.00
2017-09-15T15:46:17.537Z,55.90
2017-09-15T15:48:45.069Z,57.70
2017-09-15T15:51:12.664Z,58.30
2017-09-15T15:53:40.285Z,59.60
2017-09-15T15:56:07.810Z,59.30
2017-09-15T15:58:35.385Z,59.60
2017-09-15T16:01:03.806Z,59.50
2017-09-15T16:03:31.423Z,59.50
2017-09-15T16:05:59.028Z,59.80
2017-09-15T16:08:26.602Z,59.40
2017-09-15T16:10:54.148Z,61.20
2017-09-15T16:13:21.718Z,60.90
2017-09-15T16:15:49.264Z,59.90
2017-09-15T16:18:16.848Z,60.00
2017-09-15T16:20:44.383Z,59.70
2017-09-15T16:23:11.943Z,60.30
2017-09-15T16:25:39.472Z,60.80
2017-09-15T16:28:07.076Z,61.70
2017-09-15T16:30:34.628Z,62.90
2017-09-15T16:33:02.171Z,62.60
2017-09-15T16:35:29.791Z,62.70
2017-09-15T16:38:03.063Z,62.60
2017-09-15T16:40:36.231Z,63.50
2017-09-15T16:43:10.287Z,63.30
2017-09-15T16:45:43.618Z,63.30
2017-09-15T16:48:17.526Z,63.50
2017-09-15T16:50:45.100Z,63.50
2017-09-15T16:53:12.673Z,64.90
2017-09-15T16:55:40.281Z,65.00
2017-09-15T16:58:07.820Z,63.50
2017-09-15T17:00:35.435Z,64.30
2017-09-15T17:03:03.064Z,64.40
2017-09-15T17:05:30.669Z,64.10
2017-09-15T17:07:58.274Z,64.80
2017-09-15T17:10:26.615Z,65.00
2017-09-15T17:12:54.247Z,65.00
2017-09-15T17:15:21.832Z,64.30
2017-09-15T17:17:50.166Z,67.20
2017-09-15T17:20:17.723Z,67.10
2017-09-15T17:22:45.249Z,67.00
2017-09-15T17:25:12.807Z,67.30
2017-09-15T17:27:40.335Z,68.40
2017-09-15T17:30:07.952Z,68.80
2017-09-15T17:32:35.620Z,69.00
2017-09-15T17:35:03.386Z,69.50
2017-09-15T17:37:31.016Z,68.70
2017-09-15T17:39:58.665Z,68.70
2017-09-15T17:42:26.208Z,70.80
2017-09-15T17:44:53.787Z,71.10
2017-09-15T17:47:21.320Z,71.80
2017-09-15T17:49:48.894Z,72.20
2017-09-15T17:52:17.194Z,72.20
2017-09-15T17:54:44.762Z,72.20
2017-09-15T17:57:12.284Z,72.20
2017-09-15T17:59:39.843Z,72.40
2017-09-15T18:02:07.463Z,72.60
2017-09-15T18:04:35.005Z,73.10
2017-09-15T18:07:02.730Z,73.90
2017-09-15T18:09:31.265Z,74.50
2017-09-15T18:11:58.912Z,74.60
2017-09-15T18:14:26.464Z,74.30
2017-09-15T18:16:54.061Z,74.10
2017-09-15T18:19:21.614Z,74.40
2017-09-15T18:21:49.179Z,75.60
2017-09-15T18:24:16.702Z,74.90
2017-09-15T18:26:44.259Z,75.10
2017-09-15T18:29:11.894Z,75.40
2017-09-15T18:31:39.486Z,74.60
2017-09-15T18:34:07.055Z,74.70
2017-09-15T18:36:34.657Z,75.30
2017-09-15T18:39:02.300Z,76.40
2017-09-15T18:41:29.916Z,77.00
2017-09-15T18:43:57.518Z,76.30
2017-09-15T18:46:25.150Z,77.00
2017-09-15T18:48:52.699Z,76.30
2017-09-15T18:51:21.027Z,77.20
2017-09-15T18:53:48.588Z,77.80
2017-09-15T18:56:16.136Z,78.10
2017-09-15T18:58:43.700Z,78.30
2017-09-15T19:01:11.232Z,78.50
2017-09-15T19:03:38.801Z,78.50
2017-09-15T19:06:06.425Z,78.70
2017-09-15T19:08:34.104Z,78.50
2017-09-15T19:11:02.454Z,79.20
2017-09-15T19:13:30.143Z,79.10
2017-09-15T19:15:57.744Z,79.50
2017-09-15T19:18:25.371Z,79.70
2017-09-15T19:20:52.982Z,79.90
2017-09-15T19:23:20.548Z,79.60
2017-09-15T19:25:48.078Z,79.90
2017-09-15T19:28:15.644Z,79.70
2017-09-15T19:30:43.172Z,79.70
2017-09-15T19:33:10.780Z,80.00
2017-09-15T19:35:38.339Z,80.50
2017-09-15T19:38:06.805Z,80.00
2017-09-15T19:40:34.457Z,80.00
2017-09-15T19:43:02.668Z,79.90
2017-09-15T19:45:30.289Z,79.40
2017-09-15T19:47:58.075Z,79.40
2017-09-15T19:50:25.676Z,80.00
2017-09-15T19:52:53.358Z,80.30
2017-09-15T19:55:20.971Z,79.90
2017-09-15T19:57:48.531Z,80.50
2017-09-15T20:00:16.133Z,80.00
2017-09-15T20:02:44.519Z,80.40
2017-09-15T20:05:12.093Z,80.40
2017-09-15T20:07:39.634Z,80.80
2017-09-15T20:10:07.658Z,81.50
2017-09-15T20:12:35.254Z,82.00
2017-09-15T20:15:02.899Z,82.10
2017-09-15T20:17:30.613Z,82.50
2017-09-15T20:19:58.324Z,82.00
2017-09-15T20:22:26.649Z,82.20
2017-09-15T20:24:54.272Z,82.20
2017-09-15T20:27:21.803Z,82.10
2017-09-15T20:29:49.377Z,81.60
2017-09-15T20:32:16.895Z,81.20
2017-09-15T20:34:46.024Z,80.80
2017-09-15T20:37:13.551Z,80.90
2017-09-15T20:39:41.120Z,80.80
2017-09-15T20:42:08.656Z,81.10
2017-09-15T20:44:36.293Z,81.60
2017-09-15T20:47:03.936Z,81.00
2017-09-15T20:49:31.740Z,81.60
2017-09-15T20:51:59.456Z,82.10
2017-09-15T20:54:27.092Z,82.00
2017-09-15T20:56:54.730Z,81.50
2017-09-15T20:59:22.278Z,82.10
2017-09-15T21:01:49.909Z,82.00
2017-09-15T21:04:17.431Z,81.90
2017-09-15T21:06:45.805Z,82.80
2017-09-15T21:09:13.386Z,82.80
2017-09-15T21:11:41.769Z,83.90
2017-09-15T21:14:09.297Z,83.90
2017-09-15T21:16:36.900Z,83.80
2017-09-15T21:19:05.156Z,84.00
2017-09-15T21:21:32.807Z,83.90
2017-09-15T21:24:00.373Z,83.90
2017-09-15T21:26:28.022Z,82.30
2017-09-15T21:28:55.601Z,83.10
2017-09-15T21:31:23.327Z,83.20
2017-09-15T21:33:50.873Z,83.50
2017-09-15T21:36:18.427Z,83.40
2017-09-15T21:38:45.950Z,83.50
2017-09-15T21:41:13.512Z,83.60
2017-09-15T21:43:41.035Z,83.60
2017-09-15T21:46:08.628Z,83.80
2017-09-15T21:48:36.223Z,84.20
2017-09-15T21:51:03.820Z,84.10
2017-09-15T21:53:31.485Z,84.40
2017-09-15T21:55:59.313Z,84.60
2017-09-15T21:58:27.159Z,84.20
2017-09-15T22:00:55.527Z,84.20
2017-09-15T22:03:23.084Z,84.20
2017-09-15T22:05:50.646Z,84.40
2017-09-15T22:08:18.968Z,84.80
2017-09-15T22:10:46.723Z,84.70
2017-09-15T22:13:15.007Z,83.70
2017-09-15T22:15:42.587Z,83.60
2017-09-15T22:18:10.107Z,83.80
2017-09-15T22:20:38.530Z,85.40
2017-09-15T22:23:06.919Z,85.60
2017-09-15T22:25:34.534Z,85.60
2017-09-15T22:28:02.125Z,85.10
2017-09-15T22:30:30.624Z,85.10
2017-09-15T22:32:58.238Z,85.10
2017-09-15T22:35:26.004Z,85.60
2017-09-15T22:37:54.351Z,85.60
2017-09-15T22:40:22.747Z,86.00
2017-09-15T22:42:50.307Z,86.00
2017-09-15T22:45:17.876Z,86.70
2017-09-15T22:47:45.467Z,86.70
2017-09-15T22:50:13.788Z,85.70
2017-09-15T22:52:41.313Z,85.70
2017-09-15T22:55:08.884Z,85.90
2017-09-15T22:57:36.609Z,86.00
2017-09-15T23:00:04.215Z,85.20
2017-09-15T23:02:32.726Z,85.30
2017-09-15T23:05:00.362Z,85.30
2017-09-15T23:07:28.449Z,86.00
2017-09-15T23:09:57.211Z,84.70
2017-09-15T23:12:24.812Z,84.60
2017-09-15T23:14:52.356Z,84.10
2017-09-15T23:17:19.929Z,84.10
2017-09-15T23:19:47.506Z,84.90
2017-09-15T23:22:15.100Z,84.50
2017-09-15T23:24:42.631Z,85.00
2017-09-15T23:27:10.955Z,84.80
2017-09-15T23:29:38.520Z,84.80
2017-09-15T23:32:06.219Z,84.80
2017-09-15T23:34:33.817Z,85.90
2017-09-15T23:37:02.308Z,84.90
2017-09-15T23:39:30.097Z,84.90
2017-09-15T23:41:58.596Z,85.20
2017-09-15T23:44:26.375Z,85.20
2017-09-15T23:46:54.712Z,85.70
2017-09-15T23:49:23.067Z,86.70
2017-09-15T23:51:50.630Z,86.70
2017-09-15T23:54:18.183Z,87.30
2017-09-15T23:56:46.471Z,87.80
2017-09-15T23:59:14.026Z,88.60
